Time;durP1;ratioP1;P1;durP2;ratioP2;P2;SDS_P1;SDS_P2;PMS_P1;PMS_P2;Temp;Humidity;BMP_temperature;BMP_pressure;BME280_temperature;BME280_humidity;BME280_pressure;Samples;Min_cycle;Max_cycle;Signal;HPM_P1;HPM_P2
2023/07/10 00:00:45;;;;;;;;;;;;;;;24.34;47.32;99926.50;4500089;31;34633;-72
2023/07/10 00:03:17;;;;;;;;;;;;;;;24.32;46.97;99923.09;4489585;31;32403;-74
2023/07/10 00:05:46;;;;;;;;;;;;;;;24.30;46.91;99919.69;4491112;31;33715;-73
2023/07/10 00:08:19;;;;;;;;;;;;;;;24.36;47.15;99927.25;4492942;31;34841;-73
2023/07/10 00:10:48;;;;;;;;;;;;;;;24.17;47.08;99920.50;4496349;31;34910;-74
2023/07/10 00:13:21;;;;;;;;;;;;;;;24.19;48.13;99921.25;4497982;31;34072;-73
2023/07/10 00:15:50;;;;;;;;;;;;;;;24.08;47.69;99925.56;4492144;31;33854;-74
2023/07/10 00:18:21;;;;;;;;;;;;;;;24.10;47.57;99921.84;4492326;31;34289;-73
2023/07/10 00:20:50;;;;;;;;;;;;;;;24.04;47.58;99928.41;4495776;31;35592;-75
2023/07/10 00:23:23;;;;;;;;;;;;;;;24.10;47.91;99921.84;4499562;31;34569;-75
2023/07/10 00:25:52;;;;;;;;;;;;;;;24.04;47.96;99927.53;4499671;31;32328;-72
2023/07/10 00:28:23;;;;;;;;;;;;;;;23.91;47.96;99924.00;4493939;31;34053;-73
2023/07/10 00:30:52;;;;;;;;;;;;;;;23.93;48.70;99928.25;4497501;31;34573;-73
2023/07/10 00:33:21;;;;;;;;;;;;;;;23.94;48.63;99927.28;4503066;31;34319;-74
2023/07/10 00:35:50;;;;;;;;;;;;;;;24.02;48.42;99924.16;4505216;31;33935;-74
2023/07/10 00:38:23;;;;;;;;;;;;;;;23.95;48.26;99930.81;4499648;31;34691;-74
2023/07/10 00:40:54;;;;;;;;;;;;;;;23.81;48.19;99927.25;4501397;31;33844;-72
2023/07/10 00:43:39;;;;;;;;;;;;;;;23.97;47.67;99926.25;4502224;31;34040;-73
2023/07/10 00:46:10;;;;;;;;;;;;;;;23.80;48.52;99922.03;4493195;31;32917;-72
2023/07/10 00:48:40;;;;;;;;;;;;;;;23.95;47.86;99926.38;4500774;31;33477;-74
2023/07/10 00:51:12;;;;;;;;;;;;;;;24.00;48.06;99924.25;4493988;31;33952;-74
2023/07/10 00:53:41;;;;;;;;;;;;;;;23.99;48.33;99919.94;4491771;31;34480;-74
2023/07/10 00:56:13;;;;;;;;;;;;;;;23.84;48.05;99920.91;4491697;31;34097;-73
2023/07/10 00:58:43;;;;;;;;;;;;;;;23.89;48.04;99916.16;4498725;31;33802;-74
2023/07/10 01:01:16;;;;;;;;;;;;;;;23.89;48.22;99916.16;4497540;31;34103;-75
2023/07/10 01:03:46;;;;;;;;;;;;;;;23.90;47.97;99914.38;4493586;31;34317;-74
2023/07/10 01:06:22;;;;;;;;;;;;;;;23.87;48.63;99922.50;4491696;31;33571;-73
2023/07/10 01:08:53;;;;;;;;;;;;;;;23.66;48.22;99930.84;4493418;31;34328;-74
2023/07/10 01:11:26;;;;;;;;;;;;;;;23.84;48.01;99928.84;4497460;31;34417;-73
2023/07/10 01:13:56;;;;;;;;;;;;;;;23.73;47.67;99931.31;4492090;31;33404;-73
2023/07/10 01:16:27;;;;;;;;;;;;;;;23.83;47.97;99929.81;4493018;31;33820;-73
2023/07/10 01:19:01;;;;;;;;;;;;;;;23.94;48.71;99924.66;4493979;31;34956;-74
2023/07/10 01:21:32;;;;;;;;;;;;;;;23.83;48.80;99920.06;4493695;31;34218;-75
2023/07/10 01:24:04;;;;;;;;;;;;;;;23.74;48.93;99923.28;4499643;31;33991;-73
2023/07/10 01:26:34;;;;;;;;;;;;;;;23.78;48.89;99916.84;4493776;31;32591;-73
2023/07/10 01:29:03;;;;;;;;;;;;;;;23.72;48.47;99911.06;4495374;31;35019;-73
2023/07/10 01:31:32;;;;;;;;;;;;;;;23.83;48.18;99917.41;4493859;31;34079;-74
2023/07/10 01:34:01;;;;;;;;;;;;;;;23.78;48.64;99916.84;4501760;31;34867;-74
2023/07/10 01:36:32;;;;;;;;;;;;;;;23.88;48.57;99918.91;4493623;31;33481;-73
2023/07/10 01:39:06;;;;;;;;;;;;;;;23.63;48.66;99920.44;4499444;31;33300;-74
2023/07/10 01:41:39;;;;;;;;;;;;;;;23.63;48.90;99917.78;4494476;31;34877;-73
2023/07/10 01:44:18;;;;;;;;;;;;;;;23.74;48.56;99917.16;4497942;31;34255;-74
2023/07/10 01:46:49;;;;;;;;;;;;;;;23.71;48.67;99925.28;4499313;31;34119;-74
2023/07/10 01:49:22;;;;;;;;;;;;;;;23.80;47.85;99920.25;4493292;31;34801;-73
2023/07/10 01:52:03;;;;;;;;;;;;;;;23.83;47.95;99924.50;4498393;31;33734;-73
2023/07/10 01:54:31;;;;;;;;;;;;;;;23.69;48.71;99916.56;4500325;31;34896;-75
2023/07/10 01:57:01;;;;;;;;;;;;;;;23.92;48.40;99912.44;4495835;31;32846;-75
2023/07/10 01:59:30;;;;;;;;;;;;;;;23.93;48.46;99911.50;4499508;31;34484;-73
2023/07/10 02:02:02;;;;;;;;;;;;;;;23.93;47.94;99908.87;4497162;31;35165;-73
2023/07/10 02:04:32;;;;;;;;;;;;;;;23.97;48.26;99910.34;4493177;31;33999;-73
2023/07/10 02:07:04;;;;;;;;;;;;;;;23.78;47.83;99916.84;4493419;31;32706;-74
2023/07/10 02:09:35;;;;;;;;;;;;;;;23.93;47.94;99915.00;4496821;31;34424;-74
2023/07/10 02:12:03;;;;;;;;;;;;;;;23.74;48.25;99910.03;4499353;31;34095;-73
2023/07/10 02:14:33;;;;;;;;;;;;;;;23.88;47.69;99910.97;4493243;31;34040;-72
2023/07/10 02:17:06;;;;;;;;;;;;;;;23.83;47.40;99912.09;4493548;31;33935;-73
2023/07/10 02:19:42;;;;;;;;;;;;;;;23.90;46.48;99906.41;4493118;31;34353;-73
2023/07/10 02:22:12;;;;;;;;;;;;;;;23.89;46.77;99902.91;4499084;31;35110;-74
2023/07/10 02:24:42;;;;;;;;;;;;;;;23.82;47.63;99912.19;4492999;31;33891;-74
2023/07/10 02:27:10;;;;;;;;;;;;;;;23.77;48.42;99904.53;4493574;31;33131;-72
2023/07/10 02:29:42;;;;;;;;;;;;;;;23.74;48.04;99910.03;4498662;31;33882;-73
2023/07/10 02:32:11;;;;;;;;;;;;;;;23.77;47.24;99912.50;4493281;31;34682;-74
2023/07/10 02:34:40;;;;;;;;;;;;;;;23.67;48.68;99919.31;4505383;31;33058;-73
2023/07/10 02:37:10;;;;;;;;;;;;;;;23.79;47.81;99904.44;4500949;31;32320;-74
2023/07/10 02:39:47;;;;;;;;;;;;;;;23.84;47.92;99907.66;4505490;31;34148;-74
2023/07/10 02:42:16;;;;;;;;;;;;;;;23.68;48.08;99909.53;4495734;31;34012;-74
2023/07/10 02:44:50;;;;;;;;;;;;;;;23.63;47.78;99912.50;4498270;31;33956;-74
2023/07/10 02:47:19;;;;;;;;;;;;;;;23.78;48.42;99908.91;4494214;31;32824;-73
2023/07/10 02:49:48;;;;;;;;;;;;;;;23.67;48.21;99906.06;4504636;31;35051;-73
2023/07/10 02:52:17;;;;;;;;;;;;;;;23.72;48.07;99905.75;4506778;31;34818;-74
2023/07/10 02:54:50;;;;;;;;;;;;;;;23.72;48.28;99908.41;4499629;31;33907;-73
2023/07/10 02:57:19;;;;;;;;;;;;;;;23.78;48.76;99902.75;4511474;31;33795;-74
2023/07/10 02:59:47;;;;;;;;;;;;;;;23.81;48.20;99903.41;4496550;31;33593;-73
2023/07/10 03:02:17;;;;;;;;;;;;;;;23.77;48.78;99909.00;4492790;31;33997;-75
2023/07/10 03:04:53;;;;;;;;;;;;;;;23.91;47.68;99901.00;4503099;31;34041;-74
2023/07/10 03:07:22;;;;;;;;;;;;;;;23.94;48.70;99899.94;4501630;31;33364;-74
2023/07/10 03:09:53;;;;;;;;;;;;;;;24.02;49.27;99898.50;4502699;31;34563;-75
2023/07/10 03:12:22;;;;;;;;;;;;;;;23.85;49.70;99902.25;4498857;31;34156;-73
2023/07/10 03:14:55;;;;;;;;;;;;;;;23.97;49.68;99900.63;4494609;31;33968;-73
2023/07/10 03:17:23;;;;;;;;;;;;;;;23.89;49.66;99902.06;4502453;31;33398;-73
2023/07/10 03:19:56;;;;;;;;;;;;;;;23.94;49.54;99906.09;4499584;31;34565;-75
2023/07/10 03:22:25;;;;;;;;;;;;;;;24.02;49.46;99903.81;4494888;31;34609;-75
2023/07/10 03:24:58;;;;;;;;;;;;;;;23.97;49.96;99899.75;4494439;31;33935;-75
2023/07/10 03:27:27;;;;;;;;;;;;;;;24.03;49.84;99910.81;4494139;31;33598;-74
2023/07/10 03:30:02;;;;;;;;;;;;;;;23.95;50.16;99906.97;4499354;31;33903;-75
2023/07/10 03:32:30;;;;;;;;;;;;;;;24.00;50.13;99900.41;4492655;31;32434;-75
2023/07/10 03:35:01;;;;;;;;;;;;;;;24.10;49.61;99902.47;4493725;31;34747;-74
2023/07/10 03:37:29;;;;;;;;;;;;;;;24.19;49.92;99902.69;4493784;31;33054;-75
2023/07/10 03:40:05;;;;;;;;;;;;;;;24.05;50.70;99900.09;4461603;31;1087083;-74
2023/07/10 03:42:33;;;;;;;;;;;;;;;24.12;50.81;99897.91;4500295;31;35077;-74
2023/07/10 03:45:03;;;;;;;;;;;;;;;24.18;50.47;99894.84;4504463;31;34199;-73
2023/07/10 03:47:32;;;;;;;;;;;;;;;24.23;50.84;99888.25;4506491;31;32562;-72
2023/07/10 03:50:02;;;;;;;;;;;;;;;24.16;51.36;99887.00;4495083;31;33931;-75
2023/07/10 03:52:32;;;;;;;;;;;;;;;24.35;51.23;99888.41;4495277;31;34846;-73
2023/07/10 03:55:02;;;;;;;;;;;;;;;24.42;51.00;99884.38;4500773;31;34324;-75
2023/07/10 03:57:35;;;;;;;;;;;;;;;24.40;51.16;99884.47;4508576;31;34269;-74
2023/07/10 04:00:08;;;;;;;;;;;;;;;24.39;51.55;99898.72;4504692;31;33816;-76
2023/07/10 04:02:39;;;;;;;;;;;;;;;24.41;51.58;99885.34;4493233;31;33583;-73
2023/07/10 04:05:09;;;;;;;;;;;;;;;24.49;51.51;99897.16;4506816;31;33813;-73
2023/07/10 04:07:38;;;;;;;;;;;;;;;24.58;51.62;99890.38;4502202;31;33570;-74
2023/07/10 04:10:09;;;;;;;;;;;;;;;24.76;51.60;99892.72;4502818;31;34718;-73
2023/07/10 04:12:41;;;;;;;;;;;;;;;24.74;51.91;99891.97;4498340;31;35040;-75
2023/07/10 04:15:14;;;;;;;;;;;;;;;24.85;51.87;99892.09;4495666;31;34706;-75
2023/07/10 04:17:43;;;;;;;;;;;;;;;24.84;51.72;99882.41;4500608;31;32948;-75
2023/07/10 04:20:15;;;;;;;;;;;;;;;24.95;51.75;99893.16;4497080;31;34301;-74
2023/07/10 04:22:44;;;;;;;;;;;;;;;24.78;52.25;99898.78;4493180;31;34657;-73
2023/07/10 04:25:16;;;;;;;;;;;;;;;25.04;51.58;99891.66;4494605;31;33858;-74
2023/07/10 04:27:46;;;;;;;;;;;;;;;25.15;50.91;99899.72;4499324;31;33216;-75
2023/07/10 04:30:16;;;;;;;;;;;;;;;25.19;51.08;99895.91;4496734;31;34013;-74
2023/07/10 04:32:45;;;;;;;;;;;;;;;25.26;50.90;99902.50;4494221;31;33263;-75
2023/07/10 04:35:14;;;;;;;;;;;;;;;25.33;50.87;99902.91;4494641;31;34306;-75
2023/07/10 04:37:43;;;;;;;;;;;;;;;25.47;51.03;99901.94;4494480;31;33208;-74
2023/07/10 04:40:15;;;;;;;;;;;;;;;25.64;49.88;99892.75;4499458;31;34243;-74
2023/07/10 04:42:49;;;;;;;;;;;;;;;25.86;50.10;99892.06;4493872;31;34738;-75
2023/07/10 04:45:20;;;;;;;;;;;;;;;26.32;48.86;99885.97;4493615;31;34465;-73
2023/07/10 04:47:48;;;;;;;;;;;;;;;26.87;47.13;99897.72;4496670;31;32984;-74
2023/07/10 04:50:17;;;;;;;;;;;;;;;27.41;46.13;99897.00;4502852;31;34180;-75
2023/07/10 04:52:49;;;;;;;;;;;;;;;27.87;45.58;99887.13;4508979;31;34033;-73
2023/07/10 04:55:24;;;;;;;;;;;;;;;28.42;43.32;99895.03;4494092;31;33742;-75
2023/07/10 04:57:54;;;;;;;;;;;;;;;28.85;42.54;99894.03;4504129;31;32777;-75
2023/07/10 05:00:23;;;;;;;;;;;;;;;29.17;42.41;99893.09;4501106;31;33610;-75
2023/07/10 05:02:52;;;;;;;;;;;;;;;29.65;40.56;99895.03;4502827;31;34597;-74
2023/07/10 05:05:29;;;;;;;;;;;;;;;30.01;39.91;99898.09;4494089;31;33491;-74
2023/07/10 05:07:58;;;;;;;;;;;;;;;30.31;39.54;99903.31;4497612;31;33955;-74
2023/07/10 05:10:35;;;;;;;;;;;;;;;30.48;38.84;99895.56;4502931;31;33931;-75
2023/07/10 05:13:09;;;;;;;;;;;;;;;30.67;38.88;99906.25;4493910;31;33672;-74
2023/07/10 05:15:38;;;;;;;;;;;;;;;30.74;38.61;99906.50;4503378;31;33972;-74
2023/07/10 05:18:07;;;;;;;;;;;;;;;30.70;39.39;99908.63;4501494;31;34017;-74
2023/07/10 05:20:37;;;;;;;;;;;;;;;30.76;39.14;99908.06;4506617;31;33914;-74
2023/07/10 05:23:06;;;;;;;;;;;;;;;30.71;39.32;99909.47;4501087;31;34259;-76
2023/07/10 05:25:39;;;;;;;;;;;;;;;30.75;39.06;99905.50;4499738;31;33907;-74
2023/07/10 05:28:12;;;;;;;;;;;;;;;30.73;39.07;99904.81;4498851;31;33509;-75
2023/07/10 05:30:41;;;;;;;;;;;;;;;30.74;39.07;99903.84;4494318;31;35041;-74
2023/07/10 05:33:11;;;;;;;;;;;;;;;30.67;39.79;99906.25;4493940;31;35160;-75
2023/07/10 05:35:48;;;;;;;;;;;;;;;30.61;39.15;99904.13;4493935;31;34363;-76
2023/07/10 05:38:22;;;;;;;;;;;;;;;30.61;39.86;99910.34;4499076;31;33482;-74
2023/07/10 05:40:50;;;;;;;;;;;;;;;30.64;40.03;99917.25;4493738;31;33890;-76
2023/07/10 05:43:28;;;;;;;;;;;;;;;30.64;39.89;99911.91;4493785;31;34061;-73
2023/07/10 05:46:00;;;;;;;;;;;;;;;30.61;39.64;99913.03;4493801;31;33586;-75
2023/07/10 05:48:29;;;;;;;;;;;;;;;30.57;40.35;99916.97;4497313;31;33663;-74
2023/07/10 05:50:58;;;;;;;;;;;;;;;30.51;39.95;99912.16;4500276;31;34642;-74
2023/07/10 05:53:30;;;;;;;;;;;;;;;30.69;39.88;99919.50;4503013;31;34382;-74
2023/07/10 05:56:00;;;;;;;;;;;;;;;30.96;39.31;99911.53;4494338;31;33988;-74
2023/07/10 05:58:30;;;;;;;;;;;;;;;30.96;39.13;99916.06;4494960;31;33746;-74
2023/07/10 06:01:04;;;;;;;;;;;;;;;30.87;39.21;99916.94;4500295;31;33626;-74
2023/07/10 06:03:34;;;;;;;;;;;;;;;30.98;39.16;99917.59;4506018;31;34218;-74
2023/07/10 06:06:04;;;;;;;;;;;;;;;30.91;38.94;99923.69;4496958;31;34234;-76
2023/07/10 06:08:34;;;;;;;;;;;;;;;30.55;39.29;99910.06;4494021;31;33055;-73
2023/07/10 06:11:08;;;;;;;;;;;;;;;30.47;39.69;99912.59;4499066;31;33815;-74
2023/07/10 06:13:38;;;;;;;;;;;;;;;30.20;41.24;99915.00;4503145;31;34025;-74
2023/07/10 06:16:10;;;;;;;;;;;;;;;30.26;41.42;99913.62;4494278;31;34364;-74
2023/07/10 06:18:40;;;;;;;;;;;;;;;30.15;41.31;99911.88;4494792;31;33066;-74
2023/07/10 06:21:10;;;;;;;;;;;;;;;30.19;40.96;99904.44;4494768;31;33881;-74
2023/07/10 06:23:38;;;;;;;;;;;;;;;29.95;40.37;99902.16;4505283;31;34085;-75
2023/07/10 06:26:11;;;;;;;;;;;;;;;29.88;41.72;99901.03;4498173;31;34004;-74
2023/07/10 06:28:41;;;;;;;;;;;;;;;29.82;41.87;99901.56;4495017;31;32598;-74
2023/07/10 06:31:11;;;;;;;;;;;;;;;30.14;41.41;99910.19;4494485;31;33499;-75
2023/07/10 06:33:40;;;;;;;;;;;;;;;29.78;42.72;99907.22;4493789;31;33707;-75
2023/07/10 06:36:12;;;;;;;;;;;;;;;29.96;41.08;99909.19;4502378;31;34719;-75
2023/07/10 06:38:42;;;;;;;;;;;;;;;30.12;41.65;99905.97;4495526;31;33140;-75
2023/07/10 06:41:12;;;;;;;;;;;;;;;29.85;42.40;99904.00;4497238;31;34111;-74
2023/07/10 06:43:44;;;;;;;;;;;;;;;29.85;42.43;99904.00;4496316;31;33976;-76
2023/07/10 06:46:13;;;;;;;;;;;;;;;30.17;41.14;99901.87;4494065;31;33357;-75
2023/07/10 06:48:45;;;;;;;;;;;;;;;29.24;43.75;99900.44;4498903;31;32801;-74
2023/07/10 06:51:14;;;;;;;;;;;;;;;29.16;44.31;99902.91;4497691;31;33916;-75
2023/07/10 06:53:46;;;;;;;;;;;;;;;29.74;43.36;99904.94;4494356;31;34264;-74
2023/07/10 06:56:21;;;;;;;;;;;;;;;30.07;42.36;99901.06;4495433;31;33969;-76
2023/07/10 06:58:53;;;;;;;;;;;;;;;30.18;41.74;99894.72;4498578;31;33771;-74
2023/07/10 07:01:26;;;;;;;;;;;;;;;30.12;42.16;99892.59;4499888;31;34377;-75
2023/07/10 07:03:56;;;;;;;;;;;;;;;30.28;40.86;99892.06;4501225;31;35045;-74
2023/07/10 07:06:29;;;;;;;;;;;;;;;30.39;41.23;99897.25;4493543;31;34746;-75
2023/07/10 07:08:59;;;;;;;;;;;;;;;30.60;39.85;99900.59;4495127;31;32877;-75
2023/07/10 07:11:35;;;;;;;;;;;;;;;30.32;41.09;99901.50;4497807;31;34704;-74
2023/07/10 07:14:07;;;;;;;;;;;;;;;30.32;39.57;99894.28;4495964;31;34298;-74
2023/07/10 07:16:36;;;;;;;;;;;;;;;30.46;38.57;99885.00;4491625;31;34926;-75
2023/07/10 07:19:05;;;;;;;;;;;;;;;30.43;39.47;99887.97;4506096;31;34137;-75
2023/07/10 07:21:40;;;;;;;;;;;;;;;30.67;37.68;99883.97;4502666;31;34205;-75
2023/07/10 07:24:10;;;;;;;;;;;;;;;30.79;37.71;99891.69;4499325;31;33924;-74
2023/07/10 07:26:39;;;;;;;;;;;;;;;30.71;37.15;99888.03;4492283;31;34019;-75
2023/07/10 07:29:10;;;;;;;;;;;;;;;30.79;37.43;99888.16;4494341;31;33358;-75
2023/07/10 07:31:39;;;;;;;;;;;;;;;30.82;37.85;99887.88;4508476;31;34171;-74
2023/07/10 07:34:07;;;;;;;;;;;;;;;31.14;38.03;99894.69;4516818;31;33884;-75
2023/07/10 07:36:40;;;;;;;;;;;;;;;31.10;37.72;99891.47;4503604;31;33721;-75
2023/07/10 07:41:42;;;;;;;;;;;;;;;31.17;38.32;99892.56;4496082;31;34913;-75
2023/07/10 07:44:15;;;;;;;;;;;;;;;31.31;36.01;99890.38;4494945;31;33667;-75
2023/07/10 07:46:44;;;;;;;;;;;;;;;31.29;36.72;99885.19;4498939;31;34703;-74
2023/07/10 07:49:13;;;;;;;;;;;;;;;31.36;35.86;99893.44;4497246;31;33790;-74
2023/07/10 07:51:44;;;;;;;;;;;;;;;31.25;36.83;99889.16;4495175;31;34258;-74
2023/07/10 07:54:13;;;;;;;;;;;;;;;31.25;37.13;99889.16;4500004;31;34147;-77
2023/07/10 07:56:42;;;;;;;;;;;;;;;31.33;36.74;99896.44;4500342;31;32751;-75
2023/07/10 07:59:16;;;;;;;;;;;;;;;31.57;36.58;99890.56;4494988;31;33071;-74
2023/07/10 08:01:46;;;;;;;;;;;;;;;31.83;36.09;99880.78;4494848;31;34658;-75
2023/07/10 08:04:22;;;;;;;;;;;;;;;31.98;36.63;99882.94;4494621;31;33671;-75
2023/07/10 08:06:51;;;;;;;;;;;;;;;32.02;35.74;99878.97;4495352;31;33778;-74
2023/07/10 08:09:23;;;;;;;;;;;;;;;32.17;34.79;99877.41;4502049;31;33421;-76
2023/07/10 08:11:52;;;;;;;;;;;;;;;32.33;34.45;99873.16;4499637;31;34155;-74
2023/07/10 08:14:25;;;;;;;;;;;;;;;32.21;33.99;99881.50;4497851;31;35076;-75
2023/07/10 08:16:54;;;;;;;;;;;;;;;32.34;33.42;99864.97;4492489;31;34981;-74
2023/07/10 08:19:25;;;;;;;;;;;;;;;32.24;34.33;99872.28;4501826;31;33650;-76
2023/07/10 08:21:57;;;;;;;;;;;;;;;32.08;32.75;99867.59;4499889;31;34115;-75
2023/07/10 08:24:26;;;;;;;;;;;;;;;32.10;32.47;99870.97;4500126;31;34523;-75
2023/07/10 08:26:56;;;;;;;;;;;;;;;32.10;33.41;99866.44;4494577;31;35582;-74
2023/07/10 08:29:27;;;;;;;;;;;;;;;32.07;34.60;99857.88;4494398;31;33157;-73
2023/07/10 08:31:55;;;;;;;;;;;;;;;32.05;34.58;99860.72;4506594;31;34017;-75
2023/07/10 08:34:32;;;;;;;;;;;;;;;32.29;34.04;99860.06;4496401;31;34405;-74
2023/07/10 08:37:01;;;;;;;;;;;;;;;32.26;33.91;99851.50;4496431;31;33364;-75
2023/07/10 08:39:30;;;;;;;;;;;;;;;32.43;34.49;99857.81;4494323;31;33674;-75
2023/07/10 08:41:59;;;;;;;;;;;;;;;32.48;31.51;99844.75;4493386;31;34508;-74
2023/07/10 08:44:32;;;;;;;;;;;;;;;32.53;31.10;99849.69;4502419;31;34359;-76
2023/07/10 08:47:01;;;;;;;;;;;;;;;32.41;32.33;99844.53;4494584;31;34574;-75
2023/07/10 08:49:34;;;;;;;;;;;;;;;32.61;31.49;99850.56;4499574;31;32860;-76
2023/07/10 08:52:04;;;;;;;;;;;;;;;32.75;32.36;99851.00;4494477;31;35055;-75
2023/07/10 08:54:33;;;;;;;;;;;;;;;32.66;29.55;99848.25;4505606;31;33915;-74
2023/07/10 08:57:05;;;;;;;;;;;;;;;32.47;31.17;99840.37;4494091;31;34373;-76
2023/07/10 08:59:41;;;;;;;;;;;;;;;32.42;31.82;99840.00;4487244;31;32027;-75
2023/07/10 09:02:20;;;;;;;;;;;;;;;32.53;31.88;99842.47;4496570;31;31989;-76
2023/07/10 09:04:50;;;;;;;;;;;;;;;32.66;32.94;99842.03;4493679;31;34070;-76
2023/07/10 09:07:19;;;;;;;;;;;;;;;32.81;32.29;99834.22;4500155;31;31941;-75
2023/07/10 09:09:48;;;;;;;;;;;;;;;32.87;32.73;99836.28;4492639;31;33258;-76
2023/07/10 09:12:18;;;;;;;;;;;;;;;32.92;32.20;99836.62;4506856;31;34473;-76
2023/07/10 09:14:53;;;;;;;;;;;;;;;33.02;31.61;99840.03;4498196;31;33214;-75
2023/07/10 09:17:30;;;;;;;;;;;;;;;32.78;31.15;99834.56;4498227;31;34163;-74
2023/07/10 09:20:00;;;;;;;;;;;;;;;33.09;31.11;99838.41;4499721;31;32887;-76
2023/07/10 09:22:45;;;;;;;;;;;;;;;33.30;30.46;99838.00;4493376;31;33707;-74
2023/07/10 09:25:15;;;;;;;;;;;;;;;33.38;30.01;99830.97;4492542;31;35012;-74
2023/07/10 09:27:45;;;;;;;;;;;;;;;33.40;30.24;99839.72;4493720;31;33842;-76
2023/07/10 09:30:32;;;;;;;;;;;;;;;33.66;30.20;99831.53;4494767;31;33079;-75
2023/07/10 09:33:01;;;;;;;;;;;;;;;33.51;30.45;99831.31;4500309;31;34522;-76
2023/07/10 09:35:32;;;;;;;;;;;;;;;33.69;30.42;99823.16;4499095;31;33890;-75
2023/07/10 09:38:02;;;;;;;;;;;;;;;33.84;30.17;99816.09;4499832;31;34214;-76
2023/07/10 09:40:40;;;;;;;;;;;;;;;33.92;30.37;99828.69;4497201;31;32644;-75
2023/07/10 09:43:11;;;;;;;;;;;;;;;33.99;30.99;99821.62;4492626;31;34847;-75
2023/07/10 09:45:45;;;;;;;;;;;;;;;34.23;31.02;99812.72;4498245;31;34369;-75
2023/07/10 09:48:18;;;;;;;;;;;;;;;34.27;30.86;99816.78;4490661;31;34048;-76
2023/07/10 09:50:49;;;;;;;;;;;;;;;34.31;29.38;99817.25;4505804;31;33645;-75
2023/07/10 09:53:25;;;;;;;;;;;;;;;34.06;30.05;99808.34;4492806;31;32666;-74
2023/07/10 09:55:56;;;;;;;;;;;;;;;33.83;31.12;99814.41;4497117;31;33806;-75
2023/07/10 09:58:27;;;;;;;;;;;;;;;33.43;30.81;99801.72;4500615;31;34829;-74
2023/07/10 10:01:02;;;;;;;;;;;;;;;33.74;31.79;99802.78;4500974;31;32974;-75
2023/07/10 10:03:32;;;;;;;;;;;;;;;33.78;30.29;99800.59;4502174;31;34108;-75
2023/07/10 10:06:03;;;;;;;;;;;;;;;33.99;30.13;99802.78;4493790;31;33888;-75
2023/07/10 10:08:35;;;;;;;;;;;;;;;33.94;29.32;99797.06;4503038;31;33853;-76
2023/07/10 10:11:05;;;;;;;;;;;;;;;33.94;29.26;99789.84;4499697;31;32649;-74
2023/07/10 10:13:35;;;;;;;;;;;;;;;34.05;29.71;99785.97;4492048;31;33497;-76
2023/07/10 10:16:09;;;;;;;;;;;;;;;34.27;29.28;99789.00;4496315;31;33173;-77
2023/07/10 10:18:41;;;;;;;;;;;;;;;34.56;28.01;99788.44;4493676;31;33743;-76
2023/07/10 10:21:16;;;;;;;;;;;;;;;34.36;28.58;99785.25;4500961;31;33703;-75
2023/07/10 10:23:51;;;;;;;;;;;;;;;34.42;29.47;99781.91;4481421;31;32659;-75
2023/07/10 10:26:27;;;;;;;;;;;;;;;34.55;27.98;99768.72;4493423;31;34119;-74
2023/07/10 10:29:07;;;;;;;;;;;;;;;34.55;28.34;99773.25;4500953;31;34200;-75
2023/07/10 10:31:41;;;;;;;;;;;;;;;34.45;28.22;99767.25;4502350;31;33700;-75
2023/07/10 10:34:11;;;;;;;;;;;;;;;34.80;28.84;99766.81;4500561;31;34729;-75
2023/07/10 10:36:41;;;;;;;;;;;;;;;34.86;28.79;99772.50;4497871;31;34905;-75
2023/07/10 10:39:12;;;;;;;;;;;;;;;35.18;27.58;99758.91;4500532;31;35989;-75
2023/07/10 10:41:50;;;;;;;;;;;;;;;35.40;27.21;99764.47;4499144;31;32968;-75
2023/07/10 10:44:26;;;;;;;;;;;;;;;35.10;27.96;99767.03;4498677;31;34576;-75
2023/07/10 10:47:00;;;;;;;;;;;;;;;35.20;27.40;99770.31;4499951;31;34027;-75
2023/07/10 10:49:47;;;;;;;;;;;;;;;35.04;27.58;99770.41;4498085;31;34246;-76
2023/07/10 10:52:20;;;;;;;;;;;;;;;34.77;28.27;99764.47;4503521;31;33103;-76
2023/07/10 10:54:59;;;;;;;;;;;;;;;35.07;28.64;99763.81;4492180;31;32373;-76
2023/07/10 10:57:41;;;;;;;;;;;;;;;35.53;28.07;99767.41;4496373;31;34385;-76
2023/07/10 11:00:24;;;;;;;;;;;;;;;35.67;27.18;99766.66;4498991;31;34531;-76
2023/07/10 11:03:05;;;;;;;;;;;;;;;35.63;27.13;99767.22;4502018;31;34100;-74
2023/07/10 11:05:38;;;;;;;;;;;;;;;35.93;27.02;99753.78;4493967;31;34802;-77
2023/07/10 11:08:17;;;;;;;;;;;;;;;36.40;26.94;99750.78;4499627;31;34857;-75
2023/07/10 11:10:50;;;;;;;;;;;;;;;36.69;26.57;99746.44;4496395;31;33788;-76
2023/07/10 11:13:32;;;;;;;;;;;;;;;36.67;25.98;99748.47;4503288;31;32996;-75
2023/07/10 11:16:08;;;;;;;;;;;;;;;36.59;25.83;99754.00;4505717;31;34927;-76
2023/07/10 11:18:42;;;;;;;;;;;;;;;36.36;26.75;99760.28;4503431;31;34588;-74
2023/07/10 11:21:11;;;;;;;;;;;;;;;35.84;25.88;99743.06;4500807;31;34102;-74
2023/07/10 11:23:45;;;;;;;;;;;;;;;36.47;25.87;99751.72;4494835;31;33402;-75
2023/07/10 11:26:14;;;;;;;;;;;;;;;36.78;25.89;99747.16;4497936;31;33627;-77
2023/07/10 11:28:49;;;;;;;;;;;;;;;37.09;26.11;99738.81;4501491;31;33662;-76
2023/07/10 11:31:36;;;;;;;;;;;;;;;37.44;25.06;99728.16;4500118;31;34266;-75
2023/07/10 11:34:23;;;;;;;;;;;;;;;37.30;24.17;99733.41;4501466;31;33466;-74
2023/07/10 11:37:00;;;;;;;;;;;;;;;37.22;23.76;99747.06;4497485;31;34260;-76
2023/07/10 11:39:37;;;;;;;;;;;;;;;36.75;22.73;99742.97;4498065;31;33276;-76
2023/07/10 11:42:16;;;;;;;;;;;;;;;36.13;24.25;99733.38;4499038;31;34903;-75
2023/07/10 11:44:46;;;;;;;;;;;;;;;36.27;24.10;99737.09;4503305;31;33472;-74
2023/07/10 11:47:18;;;;;;;;;;;;;;;36.07;23.36;99728.66;4497561;31;35091;-76
2023/07/10 11:50:05;;;;;;;;;;;;;;;36.45;23.63;99734.84;4498941;31;33511;-76
2023/07/10 11:52:36;;;;;;;;;;;;;;;36.59;23.10;99738.62;4496610;31;33821;-74
2023/07/10 11:55:09;;;;;;;;;;;;;;;36.75;23.58;99726.75;4496913;31;33455;-75
2023/07/10 11:57:39;;;;;;;;;;;;;;;36.83;23.08;99720.41;4507785;31;34109;-76
2023/07/10 12:00:26;;;;;;;;;;;;;;;36.93;22.89;99713.66;4496039;31;34464;-75
2023/07/10 12:02:56;;;;;;;;;;;;;;;37.37;23.27;99723.50;4502745;31;33968;-76
2023/07/10 12:05:32;;;;;;;;;;;;;;;37.10;22.52;99721.56;4498325;31;33320;-74
2023/07/10 12:08:13;;;;;;;;;;;;;;;36.93;21.79;99713.66;4500757;31;34221;-76
2023/07/10 12:10:45;;;;;;;;;;;;;;;37.23;21.83;99713.56;4501812;31;34450;-75
2023/07/10 12:13:19;;;;;;;;;;;;;;;36.84;21.97;99708.56;4500691;31;34335;-74
2023/07/10 12:15:49;;;;;;;;;;;;;;;36.92;22.22;99709.28;4501207;31;31742;-75
2023/07/10 12:18:22;;;;;;;;;;;;;;;36.70;22.93;99710.25;4496520;31;34229;-76
2023/07/10 12:20:55;;;;;;;;;;;;;;;36.76;22.20;99705.97;4499917;31;35316;-75
2023/07/10 12:23:26;;;;;;;;;;;;;;;36.71;22.12;99703.84;4503024;31;33264;-76
2023/07/10 12:25:58;;;;;;;;;;;;;;;36.80;22.86;99700.00;4495377;31;33419;-75
2023/07/10 12:28:27;;;;;;;;;;;;;;;37.21;21.85;99699.41;4496088;31;34842;-75
2023/07/10 12:30:59;;;;;;;;;;;;;;;37.63;21.64;99695.03;4499734;31;34398;-76
2023/07/10 12:33:30;;;;;;;;;;;;;;;37.52;21.55;99706.34;4495835;31;33997;-75
2023/07/10 12:36:08;;;;;;;;;;;;;;;37.20;20.55;99694.19;4500844;31;33151;-75
2023/07/10 12:38:43;;;;;;;;;;;;;;;36.65;22.28;99694.59;4494697;31;34679;-75
2023/07/10 12:41:14;;;;;;;;;;;;;;;36.75;21.03;99697.00;4501568;31;34508;-75
2023/07/10 12:43:46;;;;;;;;;;;;;;;36.64;22.00;99692.94;4501160;31;34672;-76
2023/07/10 12:46:15;;;;;;;;;;;;;;;36.79;21.96;99701.00;4498074;31;32982;-76
2023/07/10 12:48:53;;;;;;;;;;;;;;;36.68;21.71;99698.78;4502933;31;33922;-76
2023/07/10 12:51:27;;;;;;;;;;;;;;;36.47;21.28;99697.69;4499479;31;33904;-76
2023/07/10 12:53:58;;;;;;;;;;;;;;;36.30;22.22;99691.66;4498152;31;34947;-74
2023/07/10 12:56:32;;;;;;;;;;;;;;;36.15;22.18;99689.97;4494339;31;33501;-75
2023/07/10 12:59:07;;;;;;;;;;;;;;;36.05;22.60;99691.06;4498131;31;33772;-75
2023/07/10 13:01:36;;;;;;;;;;;;;;;36.23;22.17;99688.00;4499316;31;35161;-74
2023/07/10 13:04:17;;;;;;;;;;;;;;;36.40;22.56;99690.53;4494915;31;34190;-77
2023/07/10 13:06:45;;;;;;;;;;;;;;;36.59;22.15;99683.72;4498870;31;33378;-75
2023/07/10 13:09:24;;;;;;;;;;;;;;;36.51;21.78;99688.19;4498088;31;33878;-75
2023/07/10 13:11:59;;;;;;;;;;;;;;;36.83;21.78;99680.69;4501138;31;35184;-76
2023/07/10 13:14:29;;;;;;;;;;;;;;;36.86;20.26;99676.75;4499100;31;34666;-76